createdAt,value
2023-01-31T00:00:19.595Z,0.00
2023-01-31T00:01:19.731Z,0.00
2023-01-31T00:02:19.693Z,0.00
2023-01-31T00:03:19.831Z,0.00
2023-01-31T00:04:19.994Z,0.00
2023-01-31T00:05:19.900Z,0.00
2023-01-31T00:06:19.741Z,0.00
2023-01-31T00:07:19.789Z,0.00
2023-01-31T00:08:19.801Z,0.00
2023-01-31T00:09:19.826Z,0.00
2023-01-31T00:10:19.890Z,0.00
2023-01-31T00:11:20.133Z,0.00
2023-01-31T00:12:19.905Z,0.00
2023-01-31T00:13:19.931Z,0.00
2023-01-31T00:14:19.953Z,0.00
2023-01-31T00:15:20.396Z,0.00
2023-01-31T00:16:20.001Z,0.00
2023-01-31T00:17:20.032Z,0.00
2023-01-31T00:19:20.442Z,0.00
2023-01-31T00:20:20.187Z,0.00
2023-01-31T00:21:20.446Z,0.00
2023-01-31T00:22:20.165Z,0.00
2023-01-31T00:23:20.184Z,0.00
2023-01-31T00:24:20.215Z,0.00
2023-01-31T00:25:20.621Z,0.00
2023-01-31T00:26:20.678Z,0.00
2023-01-31T00:27:20.295Z,0.00
2023-01-31T00:28:20.317Z,0.00
2023-01-31T00:29:20.348Z,0.00
2023-01-31T00:30:20.423Z,0.00
2023-01-31T00:31:20.508Z,0.00
2023-01-31T00:32:20.467Z,0.00
2023-01-31T00:33:20.752Z,0.00
2023-01-31T00:34:20.479Z,0.00
2023-01-31T00:35:20.931Z,0.00
2023-01-31T00:36:20.526Z,0.00
2023-01-31T00:37:20.555Z,0.00
2023-01-31T00:38:20.577Z,0.00
2023-01-31T00:39:20.729Z,0.00
2023-01-31T00:40:20.934Z,0.00
2023-01-31T00:41:20.769Z,0.00
2023-01-31T00:42:20.720Z,0.00
2023-01-31T00:43:20.829Z,0.00
2023-01-31T00:44:20.739Z,0.00
2023-01-31T00:45:21.086Z,0.00
2023-01-31T00:46:21.026Z,0.00
2023-01-31T00:47:21.133Z,0.00
2023-01-31T00:48:20.836Z,0.00
2023-01-31T00:49:20.860Z,0.00
2023-01-31T00:50:20.943Z,0.00
2023-01-31T00:51:20.950Z,0.00
2023-01-31T00:52:21.020Z,0.00
2023-01-31T00:53:20.980Z,0.00
2023-01-31T00:54:21.296Z,0.00
2023-01-31T00:55:21.445Z,0.00
2023-01-31T00:56:21.042Z,0.00
2023-01-31T00:57:21.172Z,0.00
2023-01-31T00:58:21.099Z,0.00
2023-01-31T00:59:21.125Z,0.00
2023-01-31T01:00:21.148Z,0.00
2023-01-31T01:01:21.480Z,0.00
2023-01-31T01:03:21.260Z,0.00
2023-01-31T01:04:21.254Z,0.00
2023-01-31T01:05:21.633Z,0.00
2023-01-31T01:06:21.306Z,0.00
2023-01-31T01:07:21.354Z,0.00
2023-01-31T01:08:21.755Z,0.00
2023-01-31T01:09:21.383Z,0.00
2023-01-31T01:10:21.412Z,0.00
2023-01-31T01:11:21.437Z,0.00
2023-01-31T01:12:21.461Z,0.00
2023-01-31T01:13:21.494Z,0.00
2023-01-31T01:14:21.519Z,0.00
2023-01-31T01:15:22.307Z,0.00
2023-01-31T01:16:21.692Z,0.00
2023-01-31T01:18:21.624Z,0.00
2023-01-31T01:19:21.641Z,0.00
2023-01-31T01:20:21.671Z,0.00
2023-01-31T01:21:21.700Z,0.00
2023-01-31T01:22:21.977Z,0.00
2023-01-31T01:23:21.772Z,0.00
2023-01-31T01:24:21.776Z,0.00
2023-01-31T01:25:22.138Z,0.00
2023-01-31T01:26:21.861Z,0.00
2023-01-31T01:27:21.850Z,0.00
2023-01-31T01:28:21.875Z,0.00
2023-01-31T01:29:22.205Z,0.00
2023-01-31T01:30:21.933Z,0.00
2023-01-31T01:31:22.111Z,0.00
2023-01-31T01:32:22.107Z,0.00
2023-01-31T01:33:22.004Z,0.00
2023-01-31T01:34:22.043Z,0.00
2023-01-31T01:35:22.283Z,0.00
2023-01-31T01:37:22.509Z,0.00
2023-01-31T01:38:22.248Z,0.00
2023-01-31T01:39:22.307Z,0.00
2023-01-31T01:40:22.188Z,0.00
2023-01-31T01:41:22.216Z,0.00
2023-01-31T01:42:22.244Z,0.00
2023-01-31T01:43:22.264Z,0.00
2023-01-31T01:44:22.587Z,0.00
2023-01-31T01:45:22.821Z,0.00
2023-01-31T01:46:22.342Z,0.00
2023-01-31T01:47:22.363Z,0.00
2023-01-31T01:48:22.392Z,0.00
2023-01-31T01:49:22.423Z,0.00
2023-01-31T01:50:22.444Z,0.00
2023-01-31T01:51:22.772Z,0.00
2023-01-31T01:52:22.505Z,0.00
2023-01-31T01:53:22.540Z,0.00
2023-01-31T01:54:22.557Z,0.00
2023-01-31T01:55:22.818Z,0.00
2023-01-31T01:56:22.612Z,0.00
2023-01-31T01:57:22.625Z,0.00
2023-01-31T01:58:22.999Z,0.00
2023-01-31T01:59:22.684Z,0.00
2023-01-31T02:00:22.721Z,0.00
2023-01-31T02:01:23.116Z,0.00
2023-01-31T02:02:22.844Z,0.00
2023-01-31T02:03:22.792Z,0.00
2023-01-31T02:04:22.812Z,0.00
2023-01-31T02:05:23.130Z,0.00
2023-01-31T02:07:22.892Z,0.00
2023-01-31T02:08:22.905Z,0.00
2023-01-31T02:09:22.940Z,0.00
2023-01-31T02:10:22.956Z,0.00
2023-01-31T02:11:23.030Z,0.00
2023-01-31T02:12:23.260Z,0.00
2023-01-31T02:13:23.052Z,0.00
2023-01-31T02:14:23.067Z,0.00
2023-01-31T02:15:23.087Z,0.00
2023-01-31T02:16:23.135Z,0.00
2023-01-31T02:17:23.147Z,0.00
2023-01-31T02:18:23.503Z,0.00
2023-01-31T02:19:23.197Z,0.00
2023-01-31T02:20:23.227Z,0.00
2023-01-31T02:21:23.248Z,0.00
2023-01-31T02:22:23.899Z,0.00
2023-01-31T02:23:23.767Z,0.00
2023-01-31T02:24:23.732Z,0.00
2023-01-31T02:25:23.879Z,0.00
2023-01-31T02:26:23.559Z,0.00
2023-01-31T02:27:23.430Z,0.00
2023-01-31T02:28:23.436Z,0.00
2023-01-31T02:29:23.455Z,0.00
2023-01-31T02:30:24.094Z,0.00
2023-01-31T02:31:24.034Z,0.00
2023-01-31T02:32:23.838Z,0.00
2023-01-31T02:33:23.709Z,0.00
2023-01-31T02:34:23.768Z,0.00
2023-01-31T02:35:23.949Z,0.00
2023-01-31T02:36:23.633Z,0.00
2023-01-31T02:37:24.342Z,0.00
2023-01-31T02:38:24.291Z,0.00
2023-01-31T02:39:24.293Z,0.00
2023-01-31T02:40:24.162Z,0.00
2023-01-31T02:41:23.895Z,0.00
2023-01-31T02:42:23.855Z,0.00
2023-01-31T02:43:23.841Z,0.00
2023-01-31T02:44:24.142Z,0.00
2023-01-31T02:45:24.350Z,0.00
2023-01-31T02:46:23.903Z,0.00
2023-01-31T02:48:24.248Z,0.00
2023-01-31T02:49:24.154Z,0.00
2023-01-31T02:50:24.145Z,0.00
2023-01-31T02:51:24.318Z,0.00
2023-01-31T02:52:24.055Z,0.00
2023-01-31T02:53:24.081Z,0.00
2023-01-31T02:54:24.103Z,0.00
2023-01-31T02:55:24.285Z,0.00
2023-01-31T02:56:24.151Z,0.00
2023-01-31T02:57:24.176Z,0.00
2023-01-31T02:58:24.502Z,0.00
2023-01-31T02:59:24.247Z,0.00
2023-01-31T03:00:24.267Z,0.00
2023-01-31T03:01:24.382Z,0.00
2023-01-31T03:02:24.397Z,0.00
2023-01-31T03:03:24.341Z,0.00
2023-01-31T03:04:24.363Z,0.00
2023-01-31T03:05:25.009Z,0.00
2023-01-31T03:06:24.452Z,0.00
2023-01-31T03:07:24.435Z,0.00
2023-01-31T03:08:24.466Z,0.00
2023-01-31T03:09:24.488Z,0.00
2023-01-31T03:10:24.515Z,0.00
2023-01-31T03:11:24.537Z,0.00
2023-01-31T03:12:24.889Z,0.00
2023-01-31T03:13:24.590Z,0.00
2023-01-31T03:14:24.624Z,0.00
2023-01-31T03:15:25.076Z,0.00
2023-01-31T03:16:24.698Z,0.00
2023-01-31T03:17:24.698Z,0.00
2023-01-31T03:18:24.726Z,0.00
2023-01-31T03:20:24.786Z,0.00
2023-01-31T03:21:24.803Z,0.00
2023-01-31T03:22:24.830Z,0.00
2023-01-31T03:24:24.878Z,0.00
2023-01-31T03:25:25.177Z,0.00
2023-01-31T03:26:25.275Z,0.00
2023-01-31T03:28:24.987Z,0.00
2023-01-31T03:29:25.012Z,0.00
2023-01-31T03:30:25.035Z,0.00
2023-01-31T03:31:25.182Z,0.00
2023-01-31T03:32:25.095Z,0.00
2023-01-31T03:33:25.360Z,0.00
2023-01-31T03:34:25.135Z,0.00
2023-01-31T03:35:25.172Z,0.00
2023-01-31T03:36:25.193Z,0.00
2023-01-31T03:37:25.216Z,0.00
2023-01-31T03:38:25.254Z,0.00
2023-01-31T03:40:25.562Z,0.00
2023-01-31T03:41:25.322Z,0.00
2023-01-31T03:42:25.364Z,0.00
2023-01-31T03:43:25.393Z,0.00
2023-01-31T03:44:25.398Z,0.00
2023-01-31T03:45:25.427Z,0.00
2023-01-31T03:46:25.580Z,0.00
2023-01-31T03:47:25.799Z,0.00
2023-01-31T03:48:25.512Z,0.00
2023-01-31T03:49:25.547Z,0.00
2023-01-31T03:53:25.647Z,0.00
2023-01-31T03:54:25.912Z,0.00
2023-01-31T03:55:25.696Z,0.00
2023-01-31T03:56:25.719Z,0.00
2023-01-31T03:57:25.765Z,0.00
2023-01-31T03:58:25.766Z,0.00
2023-01-31T03:59:25.799Z,0.00
2023-01-31T04:00:25.822Z,0.00
2023-01-31T04:02:25.929Z,0.00
2023-01-31T04:03:25.918Z,0.00
2023-01-31T04:04:25.936Z,0.00
2023-01-31T04:05:25.961Z,0.00
2023-01-31T04:06:25.981Z,0.00
2023-01-31T04:07:26.003Z,0.00
2023-01-31T04:08:26.278Z,0.00
2023-01-31T04:09:26.057Z,0.00
2023-01-31T04:10:26.088Z,0.00
2023-01-31T04:11:26.101Z,0.00
2023-01-31T04:12:26.129Z,0.00
2023-01-31T04:13:26.157Z,0.00
2023-01-31T04:14:26.430Z,0.00
2023-01-31T04:15:26.216Z,0.00
2023-01-31T04:16:26.294Z,0.00
2023-01-31T04:17:26.359Z,0.00
2023-01-31T04:18:26.290Z,0.00
2023-01-31T04:19:26.345Z,0.00
2023-01-31T04:20:26.645Z,0.00
2023-01-31T04:21:26.468Z,0.00
2023-01-31T04:22:26.390Z,0.00
2023-01-31T04:23:26.420Z,0.00
2023-01-31T04:24:26.443Z,0.00
2023-01-31T04:25:26.474Z,0.00
2023-01-31T04:26:26.944Z,0.00
2023-01-31T04:28:26.570Z,0.00
2023-01-31T04:29:26.576Z,0.00
2023-01-31T04:30:26.605Z,0.00
2023-01-31T04:31:26.693Z,0.00
2023-01-31T04:32:28.251Z,0.00
2023-01-31T04:33:27.043Z,0.00
2023-01-31T04:34:26.705Z,0.00
2023-01-31T04:35:26.857Z,0.00
2023-01-31T04:36:26.775Z,0.00
2023-01-31T04:37:26.783Z,0.00
2023-01-31T04:38:26.814Z,0.00
2023-01-31T04:39:26.845Z,0.00
2023-01-31T04:40:27.119Z,0.00
2023-01-31T04:41:26.895Z,0.00
2023-01-31T04:42:26.915Z,0.00
2023-01-31T04:43:26.963Z,0.00
2023-01-31T04:44:26.999Z,0.00
2023-01-31T04:45:26.991Z,0.00
2023-01-31T04:46:27.172Z,0.00
2023-01-31T04:47:27.301Z,0.00
2023-01-31T04:48:28.972Z,0.00
2023-01-31T04:49:27.131Z,0.00
2023-01-31T04:50:27.221Z,0.00
2023-01-31T04:51:27.181Z,0.00
2023-01-31T04:53:27.199Z,0.00
2023-01-31T04:54:27.482Z,0.00
2023-01-31T04:55:27.249Z,0.00
2023-01-31T04:56:27.283Z,0.00
2023-01-31T04:57:27.311Z,0.00
2023-01-31T04:58:27.332Z,0.00
2023-01-31T04:59:27.356Z,0.00
2023-01-31T05:00:27.383Z,0.00
2023-01-31T05:01:27.713Z,0.00
2023-01-31T05:02:27.462Z,0.00
2023-01-31T05:03:27.474Z,0.00
2023-01-31T05:04:27.488Z,0.00
2023-01-31T05:05:27.519Z,0.00
2023-01-31T05:06:27.547Z,0.00
2023-01-31T05:07:27.817Z,0.00
2023-01-31T05:08:27.858Z,0.00
2023-01-31T05:09:27.624Z,0.00
2023-01-31T05:10:27.648Z,0.00
2023-01-31T05:11:27.674Z,0.00
2023-01-31T05:12:27.698Z,0.00
2023-01-31T05:13:27.727Z,0.00
2023-01-31T05:14:27.752Z,0.00
2023-01-31T05:15:28.031Z,0.00
2023-01-31T05:16:27.876Z,0.00
2023-01-31T05:17:27.835Z,0.00
2023-01-31T05:18:27.855Z,0.00
2023-01-31T05:19:27.885Z,0.00
2023-01-31T05:20:27.917Z,0.00
2023-01-31T05:21:27.937Z,0.00
2023-01-31T05:22:28.220Z,0.00
2023-01-31T05:23:28.012Z,0.00
2023-01-31T05:24:28.016Z,0.00
2023-01-31T05:25:28.043Z,0.00
2023-01-31T05:26:28.117Z,0.00
2023-01-31T05:27:28.100Z,0.00
2023-01-31T05:28:28.131Z,0.00
2023-01-31T05:29:28.450Z,0.00
2023-01-31T05:30:28.177Z,0.00
2023-01-31T05:31:28.227Z,0.00
2023-01-31T05:33:29.364Z,0.00
2023-01-31T05:34:28.271Z,0.00
2023-01-31T05:35:28.323Z,0.00
2023-01-31T05:36:28.649Z,0.00
2023-01-31T05:37:28.357Z,0.00
2023-01-31T05:38:28.389Z,0.00
2023-01-31T05:39:28.436Z,0.00
2023-01-31T05:40:28.550Z,0.00
2023-01-31T05:42:28.639Z,0.00
2023-01-31T05:43:28.816Z,0.00
2023-01-31T05:44:28.572Z,0.00
2023-01-31T05:46:28.593Z,0.00
2023-01-31T05:47:28.617Z,0.00
2023-01-31T05:48:28.670Z,0.00
2023-01-31T05:49:28.668Z,0.00
2023-01-31T05:50:28.693Z,0.00
2023-01-31T05:51:28.720Z,0.00
2023-01-31T05:52:28.750Z,0.00
2023-01-31T05:53:28.791Z,0.00
2023-01-31T05:54:28.795Z,0.00
2023-01-31T05:55:28.881Z,0.00
2023-01-31T05:56:29.457Z,0.00
2023-01-31T05:57:28.894Z,0.00
2023-01-31T05:58:28.960Z,0.00
2023-01-31T05:59:28.939Z,0.00
2023-01-31T06:00:28.974Z,0.00
2023-01-31T06:01:28.986Z,0.00
2023-01-31T06:02:29.291Z,0.00
2023-01-31T06:03:29.058Z,0.00
2023-01-31T06:04:29.107Z,0.00
2023-01-31T06:05:29.086Z,0.00
2023-01-31T06:06:29.155Z,0.00
2023-01-31T06:07:29.148Z,0.00
2023-01-31T06:08:29.471Z,0.00
2023-01-31T06:09:29.214Z,0.00
2023-01-31T06:10:29.342Z,0.00
2023-01-31T06:11:29.279Z,0.00
2023-01-31T06:12:29.275Z,0.00
2023-01-31T06:13:29.319Z,0.00
2023-01-31T06:14:29.627Z,0.00
2023-01-31T06:15:29.354Z,0.00
2023-01-31T06:16:29.417Z,0.00
2023-01-31T06:17:30.572Z,0.00
2023-01-31T06:18:29.430Z,0.00
2023-01-31T06:19:29.459Z,0.00
2023-01-31T06:20:29.502Z,0.00
2023-01-31T06:21:29.763Z,0.00
2023-01-31T06:22:29.536Z,0.00
2023-01-31T06:23:29.568Z,0.00
2023-01-31T06:24:29.662Z,0.00
2023-01-31T06:25:29.634Z,0.00
2023-01-31T06:26:29.706Z,0.00
2023-01-31T06:28:29.964Z,0.00
2023-01-31T06:29:29.741Z,0.00
2023-01-31T06:30:29.885Z,0.00
2023-01-31T06:31:30.011Z,0.00
2023-01-31T06:32:29.806Z,0.00
2023-01-31T06:33:43.594Z,0.00
2023-01-31T06:34:29.862Z,0.00
2023-01-31T06:35:30.522Z,0.00
2023-01-31T06:36:30.372Z,0.00
2023-01-31T06:37:30.598Z,0.00
2023-01-31T06:38:30.132Z,0.00
2023-01-31T06:39:30.589Z,0.00
2023-01-31T06:40:30.578Z,0.00
2023-01-31T06:41:30.524Z,0.00
2023-01-31T06:42:30.588Z,0.00
2023-01-31T06:43:30.462Z,0.00
2023-01-31T06:44:30.444Z,4.00
2023-01-31T06:45:30.611Z,4.00
2023-01-31T06:46:30.466Z,0.00
2023-01-31T06:47:30.730Z,0.00
2023-01-31T06:48:30.520Z,4.00
2023-01-31T06:49:30.487Z,4.00
2023-01-31T06:50:30.384Z,4.00
2023-01-31T06:51:30.478Z,4.00
2023-01-31T06:52:30.653Z,8.00
2023-01-31T06:53:30.493Z,4.00
2023-01-31T06:54:30.559Z,8.00
2023-01-31T06:55:30.724Z,8.00
2023-01-31T06:56:30.551Z,12.00
2023-01-31T06:57:30.474Z,12.00
2023-01-31T06:58:30.484Z,12.00
2023-01-31T06:59:30.521Z,16.00
2023-01-31T07:00:30.719Z,20.00
2023-01-31T07:01:30.600Z,20.00
2023-01-31T07:02:31.349Z,24.00
2023-01-31T07:03:30.622Z,28.00
2023-01-31T07:04:30.706Z,28.00
2023-01-31T07:05:30.718Z,32.00
2023-01-31T07:06:30.703Z,40.00
2023-01-31T07:07:31.224Z,52.00
2023-01-31T07:08:33.196Z,52.00
2023-01-31T07:09:31.079Z,60.00
2023-01-31T07:10:31.273Z,68.00
2023-01-31T07:11:31.469Z,72.00
2023-01-31T07:12:31.462Z,76.00
2023-01-31T07:13:31.344Z,84.00
2023-01-31T07:14:31.463Z,88.00
2023-01-31T07:15:31.333Z,92.00
2023-01-31T07:16:31.171Z,104.00
2023-01-31T07:17:31.222Z,112.00
2023-01-31T07:18:31.387Z,116.00
2023-01-31T07:19:31.254Z,132.00
2023-01-31T07:20:31.520Z,144.00
2023-01-31T07:21:31.264Z,156.00
2023-01-31T07:22:31.373Z,152.00
2023-01-31T07:23:31.198Z,152.00
2023-01-31T07:24:31.207Z,168.00
2023-01-31T07:25:31.262Z,200.00
2023-01-31T07:26:31.321Z,204.00
2023-01-31T07:27:31.291Z,208.00
2023-01-31T07:28:31.483Z,216.00
2023-01-31T07:29:31.368Z,224.00
2023-01-31T07:30:32.203Z,228.00
2023-01-31T07:31:31.413Z,240.00
2023-01-31T07:32:31.407Z,236.00
2023-01-31T07:34:32.264Z,232.00
2023-01-31T07:35:31.459Z,244.00
2023-01-31T07:36:31.489Z,248.00
2023-01-31T07:37:31.513Z,256.00
2023-01-31T07:38:32.335Z,272.00
2023-01-31T07:39:32.287Z,284.00
2023-01-31T07:40:32.083Z,308.00
2023-01-31T07:41:32.130Z,332.00
2023-01-31T07:42:32.213Z,344.00
2023-01-31T07:43:32.074Z,352.00
2023-01-31T07:44:32.145Z,348.00
2023-01-31T07:45:32.020Z,360.00
2023-01-31T07:46:32.252Z,356.00
2023-01-31T07:47:31.970Z,356.00
2023-01-31T07:48:31.922Z,352.00
2023-01-31T07:49:32.060Z,360.00
2023-01-31T07:50:32.275Z,368.00
2023-01-31T07:51:32.081Z,388.00
2023-01-31T07:52:32.148Z,400.00
2023-01-31T07:53:32.026Z,412.00
2023-01-31T07:54:32.104Z,432.00
2023-01-31T07:56:32.283Z,480.00
2023-01-31T07:57:32.210Z,472.00
2023-01-31T07:58:33.095Z,460.00
2023-01-31T07:59:32.389Z,476.00
2023-01-31T08:00:32.108Z,484.00
2023-01-31T08:02:32.165Z,512.00
2023-01-31T08:04:32.285Z,640.00
2023-01-31T08:06:32.284Z,796.00
2023-01-31T08:07:32.346Z,824.00
2023-01-31T08:08:32.763Z,900.00
2023-01-31T08:09:32.352Z,956.00
2023-01-31T08:10:32.949Z,972.00
2023-01-31T08:11:33.012Z,1004.00
2023-01-31T08:12:33.075Z,928.00
2023-01-31T08:13:32.864Z,848.00
2023-01-31T08:14:32.686Z,808.00
2023-01-31T08:15:32.967Z,840.00
2023-01-31T08:16:32.872Z,904.00
2023-01-31T08:17:32.954Z,888.00
2023-01-31T08:18:32.892Z,808.00
2023-01-31T08:19:32.848Z,728.00
2023-01-31T08:20:32.793Z,664.00
2023-01-31T08:21:33.037Z,632.00
2023-01-31T08:22:32.854Z,612.00
2023-01-31T08:23:33.003Z,600.00
2023-01-31T08:24:32.999Z,620.00
2023-01-31T08:25:32.969Z,692.00
2023-01-31T08:26:32.954Z,796.00
2023-01-31T08:27:32.879Z,900.00
2023-01-31T08:28:32.851Z,940.00
2023-01-31T08:29:33.164Z,1012.00
2023-01-31T08:30:33.007Z,1164.00
2023-01-31T08:31:33.827Z,1280.00
2023-01-31T08:32:33.045Z,1320.00
2023-01-31T08:33:32.973Z,1216.00
2023-01-31T08:34:32.996Z,1084.00
2023-01-31T08:35:33.030Z,972.00
2023-01-31T08:36:33.462Z,960.00
2023-01-31T08:37:33.100Z,940.00
2023-01-31T08:38:33.496Z,1008.00
2023-01-31T08:39:33.549Z,1128.00
2023-01-31T08:40:33.174Z,1176.00
2023-01-31T08:41:33.182Z,1160.00
2023-01-31T08:42:33.214Z,1020.00
2023-01-31T08:43:42.605Z,872.00
2023-01-31T08:44:34.172Z,860.00
2023-01-31T08:45:33.541Z,904.00
2023-01-31T08:46:33.696Z,936.00
2023-01-31T08:47:33.355Z,964.00
2023-01-31T08:49:33.406Z,1000.00
2023-01-31T08:50:33.447Z,988.00
2023-01-31T08:51:33.446Z,980.00
2023-01-31T08:52:33.789Z,1048.00
2023-01-31T08:53:33.549Z,1184.00
2023-01-31T08:54:33.551Z,1256.00
2023-01-31T08:55:33.548Z,1180.00
2023-01-31T08:56:33.946Z,1144.00
2023-01-31T08:57:33.680Z,1176.00
2023-01-31T08:58:33.635Z,1040.00
2023-01-31T08:59:33.966Z,864.00
2023-01-31T09:00:33.751Z,860.00
2023-01-31T09:01:33.809Z,884.00
2023-01-31T09:02:33.786Z,824.00
2023-01-31T09:03:33.807Z,788.00
2023-01-31T09:04:33.784Z,756.00
2023-01-31T09:05:33.828Z,776.00
2023-01-31T09:06:34.162Z,876.00
2023-01-31T09:07:33.860Z,948.00
2023-01-31T09:08:34.029Z,892.00
2023-01-31T09:09:33.943Z,800.00
2023-01-31T09:10:33.946Z,752.00
2023-01-31T09:11:34.489Z,768.00
2023-01-31T09:12:34.487Z,780.00
2023-01-31T09:14:34.361Z,724.00
2023-01-31T09:15:34.087Z,692.00
2023-01-31T09:16:34.189Z,740.00
2023-01-31T09:17:34.128Z,728.00
2023-01-31T09:18:34.168Z,800.00
2023-01-31T09:19:34.180Z,1032.00
2023-01-31T09:20:34.206Z,1364.00
2023-01-31T09:21:34.479Z,1476.00
2023-01-31T09:22:34.647Z,1472.00
2023-01-31T09:23:34.297Z,1328.00
2023-01-31T09:24:34.332Z,1224.00
2023-01-31T09:25:45.630Z,1216.00
2023-01-31T09:26:34.532Z,1248.00
2023-01-31T09:27:34.402Z,1244.00
2023-01-31T09:28:34.678Z,1020.00
2023-01-31T09:29:34.538Z,900.00
2023-01-31T09:30:34.634Z,916.00
2023-01-31T09:31:34.630Z,1048.00
2023-01-31T09:32:34.519Z,1140.00
2023-01-31T09:33:34.538Z,1216.00
2023-01-31T09:34:34.597Z,1340.00
2023-01-31T09:35:34.899Z,1496.00
2023-01-31T09:36:34.630Z,1520.00
2023-01-31T09:37:34.643Z,1440.00
2023-01-31T09:39:34.704Z,1176.00
2023-01-31T09:40:34.810Z,1208.00
2023-01-31T09:41:34.767Z,1300.00
2023-01-31T09:42:35.076Z,1296.00
2023-01-31T09:43:34.859Z,1196.00
2023-01-31T09:44:34.828Z,1052.00
2023-01-31T09:45:34.858Z,924.00
2023-01-31T09:46:34.909Z,928.00
2023-01-31T09:47:34.916Z,1088.00
2023-01-31T09:48:34.938Z,1280.00
2023-01-31T09:50:35.295Z,1292.00
2023-01-31T09:51:35.028Z,1196.00
2023-01-31T09:52:35.043Z,1196.00
2023-01-31T09:55:35.123Z,1492.00
2023-01-31T09:56:35.166Z,1452.00
2023-01-31T09:57:35.927Z,1460.00
2023-01-31T09:58:35.194Z,1460.00
2023-01-31T10:00:35.248Z,1408.00
2023-01-31T10:03:35.744Z,2092.00
2023-01-31T10:04:35.352Z,2272.00
2023-01-31T10:05:35.469Z,2040.00
2023-01-31T10:06:35.403Z,1768.00
2023-01-31T10:07:35.431Z,1544.00
2023-01-31T10:08:35.457Z,1360.00
2023-01-31T10:09:35.968Z,1344.00
2023-01-31T10:10:35.530Z,1460.00
2023-01-31T10:11:36.653Z,1620.00
2023-01-31T10:12:35.588Z,1732.00
2023-01-31T10:13:35.586Z,1796.00
2023-01-31T10:15:36.417Z,1924.00
2023-01-31T10:16:35.673Z,1868.00
2023-01-31T10:17:35.761Z,2036.00
2023-01-31T10:18:36.250Z,2332.00
2023-01-31T10:19:36.167Z,2400.00
2023-01-31T10:20:35.776Z,2548.00
2023-01-31T10:21:36.048Z,2688.00
2023-01-31T10:22:35.828Z,2708.00
2023-01-31T10:23:35.852Z,2768.00
2023-01-31T10:24:35.887Z,2740.00
2023-01-31T10:25:35.939Z,2804.00
2023-01-31T10:26:36.426Z,2424.00
2023-01-31T10:27:36.460Z,2056.00
2023-01-31T10:28:36.577Z,1952.00
2023-01-31T10:29:36.352Z,1944.00
2023-01-31T10:30:36.254Z,1864.00
2023-01-31T10:31:36.313Z,1744.00
2023-01-31T10:32:36.142Z,1656.00
2023-01-31T10:33:36.116Z,1764.00
2023-01-31T10:34:36.164Z,1908.00
2023-01-31T10:35:36.469Z,1896.00
2023-01-31T10:36:36.258Z,1872.00
2023-01-31T10:37:36.381Z,1800.00
2023-01-31T10:38:36.246Z,1724.00
2023-01-31T10:39:36.283Z,1704.00
2023-01-31T10:40:36.530Z,1732.00
2023-01-31T10:41:36.318Z,1712.00
2023-01-31T10:42:36.613Z,1864.00
2023-01-31T10:43:36.372Z,1860.00
2023-01-31T10:44:36.455Z,1860.00
2023-01-31T10:45:36.458Z,1804.00
2023-01-31T10:46:36.461Z,1724.00
2023-01-31T10:47:36.488Z,1768.00
2023-01-31T10:48:36.528Z,1808.00
2023-01-31T10:49:36.528Z,1748.00
2023-01-31T10:50:36.565Z,1796.00
2023-01-31T10:51:36.585Z,1692.00
2023-01-31T10:52:36.605Z,1872.00
2023-01-31T10:53:36.643Z,1856.00
2023-01-31T10:54:36.666Z,1744.00
2023-01-31T10:55:36.690Z,1860.00
2023-01-31T10:56:36.730Z,1980.00
2023-01-31T10:57:36.759Z,2476.00
2023-01-31T10:58:36.877Z,2780.00
2023-01-31T10:59:36.808Z,2932.00
2023-01-31T11:00:36.891Z,2992.00
2023-01-31T11:01:37.159Z,3344.00
2023-01-31T11:02:36.938Z,3096.00
2023-01-31T11:03:36.909Z,3128.00
2023-01-31T11:04:36.939Z,3096.00
2023-01-31T11:05:36.951Z,2968.00
2023-01-31T11:06:36.978Z,2800.00
2023-01-31T11:07:37.005Z,3092.00
2023-01-31T11:08:37.298Z,3444.00
2023-01-31T11:10:37.085Z,2604.00
2023-01-31T11:11:37.113Z,2500.00
2023-01-31T11:12:37.134Z,2672.00
2023-01-31T11:13:37.172Z,2480.00
2023-01-31T11:14:37.198Z,2444.00
2023-01-31T11:15:37.216Z,2428.00
2023-01-31T11:16:37.293Z,2428.00
2023-01-31T11:17:37.274Z,2424.00
2023-01-31T11:18:37.293Z,2500.00
2023-01-31T11:19:37.319Z,2604.00
2023-01-31T11:20:37.662Z,2536.00
2023-01-31T11:21:37.399Z,2872.00
2023-01-31T11:22:37.399Z,2888.00
2023-01-31T11:23:37.447Z,2708.00
2023-01-31T11:24:37.462Z,2556.00
2023-01-31T11:25:37.579Z,2372.00
2023-01-31T11:26:37.532Z,2316.00
2023-01-31T11:27:37.525Z,2264.00
2023-01-31T11:28:37.558Z,2312.00
2023-01-31T11:29:37.579Z,2216.00
2023-01-31T11:30:37.618Z,2116.00
2023-01-31T11:31:37.654Z,1948.00
2023-01-31T11:32:37.939Z,1776.00
2023-01-31T11:33:37.691Z,1648.00
2023-01-31T11:34:37.721Z,1656.00
2023-01-31T11:35:37.737Z,1768.00
2023-01-31T11:36:37.763Z,1856.00
2023-01-31T11:37:37.796Z,1796.00
2023-01-31T11:38:37.820Z,1640.00
2023-01-31T11:39:37.915Z,1484.00
2023-01-31T11:40:37.973Z,1376.00
2023-01-31T11:41:37.909Z,1176.00
2023-01-31T11:42:38.086Z,1564.00
2023-01-31T11:43:37.964Z,1928.00
2023-01-31T11:44:37.979Z,2184.00
2023-01-31T11:45:38.015Z,2248.00
2023-01-31T11:46:38.060Z,2296.00
2023-01-31T11:47:38.051Z,2312.00
2023-01-31T11:48:38.102Z,2296.00
2023-01-31T11:49:38.112Z,2336.00
2023-01-31T11:50:38.147Z,2112.00
2023-01-31T11:51:38.469Z,1856.00
2023-01-31T11:52:38.188Z,1568.00
2023-01-31T11:53:38.211Z,1528.00
2023-01-31T11:54:38.275Z,1644.00
2023-01-31T11:55:38.269Z,1484.00
2023-01-31T11:56:38.302Z,1480.00
2023-01-31T11:57:38.358Z,1480.00
2023-01-31T11:59:38.370Z,1156.00
2023-01-31T12:00:38.396Z,1136.00
2023-01-31T12:01:38.428Z,1168.00
2023-01-31T12:02:38.511Z,928.00
2023-01-31T12:03:48.662Z,924.00
2023-01-31T12:04:38.513Z,1188.00
2023-01-31T12:05:38.628Z,1812.00
2023-01-31T12:06:38.550Z,1412.00
2023-01-31T12:07:38.578Z,1376.00
2023-01-31T12:08:38.617Z,1368.00
2023-01-31T12:09:38.951Z,1520.00
2023-01-31T12:10:38.655Z,1660.00
2023-01-31T12:11:38.681Z,1512.00
2023-01-31T12:12:39.986Z,1340.00
2023-01-31T12:13:38.733Z,1536.00
2023-01-31T12:14:38.754Z,1948.00
2023-01-31T12:15:38.793Z,2036.00
2023-01-31T12:16:38.878Z,2120.00
2023-01-31T12:17:38.861Z,2188.00
2023-01-31T12:18:38.867Z,2408.00
2023-01-31T12:19:38.886Z,1964.00
2023-01-31T12:20:38.940Z,1780.00
2023-01-31T12:21:38.953Z,1804.00
2023-01-31T12:23:39.003Z,1444.00
2023-01-31T12:24:39.018Z,1612.00
2023-01-31T12:25:39.049Z,1376.00
2023-01-31T12:26:39.138Z,1492.00
2023-01-31T12:27:39.097Z,1476.00
2023-01-31T12:28:39.124Z,1392.00
2023-01-31T12:29:39.157Z,1140.00
2023-01-31T12:30:39.288Z,1692.00
2023-01-31T12:31:39.315Z,1548.00
2023-01-31T12:32:39.252Z,1556.00
2023-01-31T12:33:39.266Z,1400.00
2023-01-31T12:34:50.455Z,1760.00
2023-01-31T12:35:39.303Z,1744.00
2023-01-31T12:36:39.361Z,2152.00
2023-01-31T12:37:39.360Z,2192.00
2023-01-31T12:38:39.385Z,2540.00
2023-01-31T12:39:39.425Z,3356.00
2023-01-31T12:40:39.436Z,2960.00
2023-01-31T12:41:39.605Z,3616.00
2023-01-31T12:42:39.491Z,3068.00
2023-01-31T12:43:39.524Z,2548.00
2023-01-31T12:44:39.655Z,2616.00
2023-01-31T12:45:39.593Z,2340.00
2023-01-31T12:46:39.618Z,1936.00
2023-01-31T12:47:39.626Z,1568.00
2023-01-31T12:48:39.654Z,1200.00
2023-01-31T12:49:39.673Z,1160.00
2023-01-31T12:50:39.711Z,1284.00
2023-01-31T12:51:39.748Z,1412.00
2023-01-31T12:52:39.832Z,1804.00
2023-01-31T12:53:40.029Z,1716.00
2023-01-31T12:54:39.803Z,1408.00
2023-01-31T12:55:39.825Z,1228.00
2023-01-31T12:56:39.848Z,1344.00
2023-01-31T12:57:39.885Z,1304.00
2023-01-31T12:58:39.911Z,1464.00
2023-01-31T12:59:39.947Z,1544.00
2023-01-31T13:00:40.287Z,1380.00
2023-01-31T13:01:40.035Z,1232.00
2023-01-31T13:02:40.080Z,1276.00
2023-01-31T13:03:40.045Z,1324.00
2023-01-31T13:04:40.065Z,1324.00
2023-01-31T13:05:40.088Z,1220.00
2023-01-31T13:06:40.140Z,1100.00
2023-01-31T13:07:40.453Z,1080.00
2023-01-31T13:08:41.282Z,1320.00
2023-01-31T13:09:40.196Z,1448.00
2023-01-31T13:10:40.242Z,1492.00
2023-01-31T13:11:40.245Z,1268.00
2023-01-31T13:12:40.298Z,1412.00
2023-01-31T13:13:40.469Z,1148.00
2023-01-31T13:14:40.644Z,1180.00
2023-01-31T13:15:40.431Z,1316.00
2023-01-31T13:16:40.570Z,1160.00
2023-01-31T13:17:40.459Z,1084.00
2023-01-31T13:18:40.428Z,872.00
2023-01-31T13:19:40.510Z,756.00
2023-01-31T13:20:40.594Z,760.00
2023-01-31T13:21:40.757Z,744.00
2023-01-31T13:22:40.534Z,804.00
2023-01-31T13:23:40.598Z,716.00
2023-01-31T13:24:40.636Z,816.00